createdAt,value
2019-04-21T00:00:45.647Z,15.98
2019-04-21T00:03:23.023Z,13.32
2019-04-21T00:06:03.011Z,10.30
2019-04-21T00:08:35.357Z,11.50
2019-04-21T00:11:10.764Z,10.20
2019-04-21T00:13:32.368Z,14.70
2019-04-21T00:15:54.989Z,13.85
2019-04-21T00:18:47.997Z,13.65
2019-04-21T00:21:18.295Z,11.10
2019-04-21T00:23:56.169Z,14.50
2019-04-21T00:26:31.774Z,14.10
2019-04-21T00:29:09.161Z,14.23
2019-04-21T00:31:32.264Z,15.60
2019-04-21T00:33:46.720Z,16.00
2019-04-21T00:36:22.865Z,17.13
2019-04-21T00:39:16.995Z,17.23
2019-04-21T00:41:40.194Z,16.23
2019-04-21T00:44:00.666Z,13.35
2019-04-21T00:46:36.308Z,13.65
2019-04-21T00:49:08.528Z,15.63
2019-04-21T00:52:00.536Z,17.37
2019-04-21T00:54:29.369Z,18.25
2019-04-21T00:56:56.201Z,15.18
2019-04-21T00:59:20.159Z,15.40
2019-04-21T01:01:52.484Z,15.95
2019-04-21T01:04:29.491Z,12.37
2019-04-21T01:06:55.957Z,16.70
2019-04-21T01:09:25.944Z,16.00
2019-04-21T01:11:55.406Z,16.00
2019-04-21T01:14:34.371Z,18.82
2019-04-21T01:17:00.799Z,16.30
2019-04-21T01:19:32.046Z,13.62
2019-04-21T01:21:40.733Z,14.63
2019-04-21T01:24:19.284Z,28.20
2019-04-21T01:26:52.477Z,14.73
2019-04-21T01:29:37.353Z,16.90
2019-04-21T01:32:13.470Z,15.43
2019-04-21T01:34:39.327Z,16.20
2019-04-21T01:37:05.672Z,13.72
2019-04-21T01:39:41.183Z,18.25
2019-04-21T01:42:08.972Z,14.05
2019-04-21T01:44:44.493Z,13.40
2019-04-21T01:47:08.832Z,14.30
2019-04-21T01:49:32.746Z,13.15
2019-04-21T01:52:24.054Z,14.35
2019-04-21T01:55:00.350Z,12.65
2019-04-21T01:57:55.256Z,15.28
2019-04-21T02:00:40.849Z,16.45
2019-04-21T02:03:28.621Z,19.05
2019-04-21T02:05:46.770Z,12.37
2019-04-21T02:08:13.444Z,12.65
2019-04-21T02:10:47.718Z,20.17
2019-04-21T02:13:12.055Z,16.55
2019-04-21T02:15:48.768Z,13.18
2019-04-21T02:18:17.001Z,16.85
2019-04-21T02:20:39.850Z,16.35
2019-04-21T02:23:34.705Z,15.88
2019-04-21T02:25:53.344Z,15.40
2019-04-21T02:28:32.212Z,15.53
2019-04-21T02:31:18.104Z,14.93
2019-04-21T02:33:50.699Z,16.15
2019-04-21T02:39:00.576Z,14.50
2019-04-21T02:41:10.468Z,15.58
2019-04-21T02:43:39.176Z,22.15
2019-04-21T02:46:13.873Z,16.50
2019-04-21T02:48:51.382Z,18.85
2019-04-21T02:51:08.676Z,19.75
2019-04-21T02:54:01.684Z,15.63
2019-04-21T02:56:18.076Z,15.48
2019-04-21T02:59:02.438Z,16.45
2019-04-21T03:04:53.379Z,14.13
2019-04-21T03:10:04.811Z,13.18
2019-04-21T03:12:28.613Z,14.68
2019-04-21T03:15:11.958Z,14.30
2019-04-21T03:20:14.619Z,14.65
2019-04-21T03:22:31.533Z,17.05
2019-04-21T03:25:33.081Z,19.92
2019-04-21T03:30:33.375Z,14.45
2019-04-21T03:36:02.216Z,15.00
2019-04-21T03:37:47.759Z,15.23
2019-04-21T03:40:14.908Z,15.28
2019-04-21T03:45:25.168Z,15.95
2019-04-21T03:47:50.075Z,14.18
2019-04-21T03:50:27.772Z,14.40
2019-04-21T03:53:00.795Z,15.07
2019-04-21T03:58:15.211Z,16.23
2019-04-21T04:03:52.184Z,18.73
2019-04-21T04:06:38.856Z,14.93
2019-04-21T04:09:37.559Z,16.77
2019-04-21T04:12:05.147Z,18.50
2019-04-21T04:14:42.584Z,14.13
2019-04-21T04:24:39.142Z,15.43
2019-04-21T04:27:20.294Z,15.48
2019-04-21T04:29:48.344Z,16.30
2019-04-21T04:32:04.126Z,15.60
2019-04-21T04:34:47.667Z,15.30
2019-04-21T04:45:14.449Z,15.48
2019-04-21T04:47:49.873Z,15.38
2019-04-21T04:50:26.290Z,16.55
2019-04-21T04:52:46.356Z,17.15
2019-04-21T04:55:32.002Z,15.90
2019-04-21T05:05:44.498Z,16.57
2019-04-21T05:07:57.780Z,16.60
2019-04-21T05:10:41.667Z,20.23
2019-04-21T05:12:56.985Z,21.95
2019-04-21T05:15:42.494Z,16.20
2019-04-21T05:17:57.935Z,17.62
2019-04-21T05:20:24.253Z,17.30
2019-04-21T05:22:53.125Z,14.83
2019-04-21T05:25:18.564Z,16.50
2019-04-21T05:27:52.609Z,15.48
2019-04-21T05:30:50.782Z,16.12
2019-04-21T05:33:38.078Z,16.97
2019-04-21T05:36:22.270Z,13.88
2019-04-21T05:39:03.888Z,13.95
2019-04-21T05:41:27.717Z,15.03
2019-04-21T05:44:13.244Z,13.88
2019-04-21T05:46:49.578Z,14.30
2019-04-21T05:49:14.119Z,14.73
2019-04-21T05:51:55.638Z,16.32
2019-04-21T05:54:40.901Z,17.32
2019-04-21T05:57:05.938Z,16.55
2019-04-21T05:59:40.415Z,12.63
2019-04-21T06:02:18.545Z,18.85
2019-04-21T06:05:02.710Z,12.37
2019-04-21T06:07:21.524Z,12.18
2019-04-21T06:09:54.236Z,14.73
2019-04-21T06:12:14.621Z,14.95
2019-04-21T06:14:52.208Z,12.98
2019-04-21T06:17:19.393Z,12.10
2019-04-21T06:19:49.627Z,13.75
2019-04-21T06:22:14.869Z,13.72
2019-04-21T06:25:14.580Z,14.70
2019-04-21T06:27:26.414Z,11.45
2019-04-21T06:29:50.298Z,16.65
2019-04-21T06:37:47.397Z,13.32
2019-04-21T06:40:23.083Z,14.65
2019-04-21T06:42:39.209Z,11.88
2019-04-21T06:45:07.280Z,11.10
2019-04-21T06:47:51.391Z,12.18
2019-04-21T06:50:07.675Z,13.15
2019-04-21T06:55:12.521Z,10.80
2019-04-21T06:57:38.915Z,10.15
2019-04-21T07:00:06.281Z,9.83
2019-04-21T07:05:13.258Z,9.88
2019-04-21T07:07:52.173Z,12.25
2019-04-21T07:10:14.329Z,9.80
2019-04-21T07:12:45.015Z,10.60
2019-04-21T07:15:19.188Z,12.15
2019-04-21T07:17:45.726Z,12.78
2019-04-21T07:20:17.204Z,9.18
2019-04-21T07:22:47.866Z,9.73
2019-04-21T07:25:22.090Z,11.57
2019-04-21T07:27:52.028Z,10.40
2019-04-21T07:30:26.529Z,9.33
2019-04-21T07:32:59.467Z,11.63
2019-04-21T07:35:25.545Z,10.55
2019-04-21T07:37:54.154Z,10.38
2019-04-21T07:40:20.310Z,10.90
2019-04-21T07:42:55.638Z,10.45
2019-04-21T07:45:25.390Z,9.88
2019-04-21T07:48:03.137Z,11.55
2019-04-21T07:50:38.876Z,10.55
2019-04-21T07:53:21.126Z,10.45
2019-04-21T07:55:30.097Z,10.38
2019-04-21T07:58:22.323Z,10.50
2019-04-21T08:03:33.655Z,9.63
2019-04-21T08:05:58.873Z,11.10
2019-04-21T08:08:22.033Z,8.33
2019-04-21T08:10:53.641Z,12.50
2019-04-21T08:13:34.247Z,11.43
2019-04-21T08:15:57.726Z,8.95
2019-04-21T08:18:28.634Z,9.80
2019-04-21T08:21:00.805Z,10.72
2019-04-21T08:23:34.085Z,8.35
2019-04-21T08:26:04.765Z,13.72
2019-04-21T08:28:32.076Z,10.05
2019-04-21T08:31:09.878Z,10.10
2019-04-21T08:33:38.754Z,10.13
2019-04-21T08:36:23.170Z,9.20
2019-04-21T08:38:42.618Z,8.63
2019-04-21T08:41:08.616Z,9.80
2019-04-21T08:43:43.081Z,7.25
2019-04-21T08:46:13.779Z,8.75
2019-04-21T08:48:46.582Z,7.30
2019-04-21T08:53:47.583Z,6.17
2019-04-21T08:56:34.360Z,7.50
2019-04-21T08:59:34.288Z,7.22
2019-04-21T09:02:09.196Z,6.95
2019-04-21T09:04:33.493Z,8.15
2019-04-21T09:09:44.502Z,5.97
2019-04-21T09:12:10.608Z,5.10
2019-04-21T09:14:41.536Z,7.60
2019-04-21T09:17:06.457Z,8.08
2019-04-21T09:19:51.907Z,7.78
2019-04-21T09:22:12.813Z,5.35
2019-04-21T09:24:45.623Z,5.35
2019-04-21T09:27:15.858Z,5.60
2019-04-21T09:29:36.588Z,7.83
2019-04-21T09:32:01.933Z,5.95
2019-04-21T09:34:37.015Z,6.92
2019-04-21T09:37:15.404Z,7.28
2019-04-21T09:39:33.362Z,4.37
2019-04-21T09:42:06.208Z,5.87
2019-04-21T09:44:40.093Z,7.70
2019-04-21T09:47:07.395Z,4.85
2019-04-21T09:49:38.083Z,4.05
2019-04-21T09:52:18.514Z,7.65
2019-04-21T09:54:48.869Z,5.22
2019-04-21T09:57:22.838Z,5.33
2019-04-21T09:59:48.699Z,6.53
2019-04-21T10:02:18.228Z,5.15
2019-04-21T10:04:43.635Z,4.72
2019-04-21T10:07:24.529Z,5.40
2019-04-21T10:09:44.160Z,7.45
2019-04-21T10:12:14.261Z,4.87
2019-04-21T10:14:45.115Z,5.10
2019-04-21T10:17:27.730Z,4.90
2019-04-21T10:19:57.091Z,5.12
2019-04-21T10:22:26.761Z,5.70
2019-04-21T10:24:56.490Z,4.78
2019-04-21T10:27:27.258Z,6.28
2019-04-21T10:29:58.028Z,8.73
2019-04-21T10:32:28.204Z,9.73
2019-04-21T10:34:59.089Z,4.55
2019-04-21T10:37:44.138Z,5.15
2019-04-21T10:40:00.153Z,6.03
2019-04-21T10:42:29.616Z,6.05
2019-04-21T10:44:58.980Z,4.15
2019-04-21T10:47:29.333Z,5.12
2019-04-21T10:49:58.760Z,4.30
2019-04-21T10:52:47.199Z,4.50
2019-04-21T10:55:32.063Z,5.03
2019-04-21T10:58:06.409Z,7.55
2019-04-21T11:00:36.449Z,6.30
2019-04-21T11:03:24.749Z,4.83
2019-04-21T11:05:54.713Z,4.92
2019-04-21T11:08:30.679Z,5.45
2019-04-21T11:10:56.063Z,5.90
2019-04-21T11:13:26.411Z,6.25
2019-04-21T11:15:57.033Z,5.20
2019-04-21T11:18:26.464Z,10.82
2019-04-21T11:20:55.838Z,4.80
2019-04-21T11:23:25.239Z,6.83
2019-04-21T11:25:55.780Z,5.12
2019-04-21T11:28:25.254Z,6.78
2019-04-21T11:30:54.911Z,4.75
2019-04-21T11:33:24.951Z,5.58
2019-04-21T11:35:55.143Z,4.70
2019-04-21T11:38:33.478Z,5.97
2019-04-21T11:41:03.414Z,5.45
2019-04-21T11:43:32.965Z,6.35
2019-04-21T11:46:02.621Z,5.33
2019-04-21T11:48:32.513Z,4.95
2019-04-21T11:51:02.007Z,4.35
2019-04-21T11:53:32.782Z,9.23
2019-04-21T11:56:02.869Z,4.75
2019-04-21T11:58:32.221Z,6.12
2019-04-21T12:01:03.322Z,4.90
2019-04-21T12:03:33.654Z,6.55
2019-04-21T12:06:03.697Z,5.42
2019-04-21T12:08:40.387Z,5.62
2019-04-21T12:11:05.335Z,4.33
2019-04-21T12:13:36.109Z,5.00
2019-04-21T12:16:05.759Z,4.80
2019-04-21T12:18:36.716Z,4.45
2019-04-21T12:21:07.410Z,4.22
2019-04-21T12:23:36.827Z,5.00
2019-04-21T12:26:07.332Z,9.40
2019-04-21T12:28:37.642Z,7.90
2019-04-21T12:31:21.236Z,9.88
2019-04-21T12:34:01.579Z,6.08
2019-04-21T12:36:31.717Z,4.97
2019-04-21T12:39:03.286Z,5.33
2019-04-21T12:41:32.874Z,5.08
2019-04-21T12:44:02.646Z,5.45
2019-04-21T12:46:31.979Z,6.25
2019-04-21T12:49:02.152Z,5.72
2019-04-21T12:51:31.672Z,4.90
2019-04-21T12:54:01.640Z,4.10
2019-04-21T12:56:31.587Z,4.47
2019-04-21T12:59:01.564Z,5.45
2019-04-21T13:01:30.968Z,5.12
2019-04-21T13:04:01.827Z,5.92
2019-04-21T13:06:31.777Z,4.78
2019-04-21T13:09:05.244Z,5.03
2019-04-21T13:11:33.161Z,5.60
2019-04-21T13:14:03.964Z,6.03
2019-04-21T13:16:33.752Z,6.08
2019-04-21T13:19:03.222Z,4.70
2019-04-21T13:21:34.054Z,4.22
2019-04-21T13:24:04.908Z,6.35
2019-04-21T13:26:43.076Z,12.28
2019-04-21T13:29:06.045Z,4.85
2019-04-21T13:31:36.234Z,5.30
2019-04-21T13:34:06.169Z,5.80
2019-04-21T13:36:35.966Z,11.85
2019-04-21T13:40:09.972Z,6.80
2019-04-21T13:42:25.908Z,5.20
2019-04-21T13:44:48.817Z,4.83
2019-04-21T13:47:18.639Z,4.92
2019-04-21T13:49:49.508Z,3.90
2019-04-21T13:52:18.935Z,4.10
2019-04-21T13:54:49.552Z,4.37
2019-04-21T13:57:19.007Z,6.53
2019-04-21T13:59:49.590Z,4.90
2019-04-21T14:02:20.714Z,4.70
2019-04-21T14:04:51.676Z,4.20
2019-04-21T14:07:21.215Z,6.00
2019-04-21T14:09:57.571Z,5.08
2019-04-21T14:12:21.658Z,4.33
2019-04-21T14:14:52.383Z,7.75
2019-04-21T14:17:22.494Z,5.17
2019-04-21T14:19:53.084Z,4.10
2019-04-21T14:22:24.234Z,6.05
2019-04-21T14:24:54.127Z,5.00
2019-04-21T14:27:24.025Z,4.60
2019-04-21T14:29:53.615Z,3.83
2019-04-21T14:32:24.254Z,5.37
2019-04-21T14:34:54.114Z,5.08
2019-04-21T14:37:24.678Z,4.40
2019-04-21T14:40:01.833Z,5.85
2019-04-21T14:42:26.150Z,4.83
2019-04-21T14:44:56.795Z,4.75
2019-04-21T14:47:48.284Z,4.40
2019-04-21T14:50:34.935Z,5.55
2019-04-21T14:53:11.845Z,5.40
2019-04-21T14:55:43.566Z,4.30
2019-04-21T14:58:13.003Z,5.58
2019-04-21T15:01:04.190Z,4.83
2019-04-21T15:03:34.157Z,5.17
2019-04-21T15:06:03.679Z,3.40
2019-04-21T15:08:33.442Z,5.67
2019-04-21T15:11:03.221Z,6.15
2019-04-21T15:13:32.650Z,6.33
2019-04-21T15:16:02.727Z,3.60
2019-04-21T15:18:32.766Z,4.37
2019-04-21T15:21:03.633Z,6.45
2019-04-21T15:23:33.923Z,3.98
2019-04-21T15:26:04.194Z,4.45
2019-04-21T15:28:35.558Z,3.90
2019-04-21T15:31:04.931Z,4.60
2019-04-21T15:33:35.004Z,6.58
2019-04-21T15:36:05.060Z,4.97
2019-04-21T15:38:35.805Z,4.50
2019-04-21T15:41:10.060Z,4.50
2019-04-21T15:43:36.426Z,5.10
2019-04-21T15:46:06.784Z,6.67
2019-04-21T15:48:37.064Z,4.45
2019-04-21T15:51:08.445Z,5.67
2019-04-21T15:53:37.950Z,5.47
2019-04-21T15:56:21.083Z,5.90
2019-04-21T15:58:58.913Z,5.25
2019-04-21T16:01:46.405Z,5.62
2019-04-21T16:04:16.828Z,8.73
2019-04-21T16:06:47.722Z,4.92
2019-04-21T16:09:21.433Z,7.42
2019-04-21T16:11:49.750Z,5.40
2019-04-21T16:14:20.510Z,3.83
2019-04-21T16:16:51.619Z,5.08
2019-04-21T16:19:22.905Z,5.42
2019-04-21T16:21:52.821Z,5.25
2019-04-21T16:24:23.279Z,8.93
2019-04-21T16:26:53.022Z,5.10
2019-04-21T16:29:23.000Z,4.37
2019-04-21T16:31:53.297Z,4.05
2019-04-21T16:34:35.394Z,5.62
2019-04-21T16:36:53.971Z,4.15
2019-04-21T16:39:23.384Z,5.05
2019-04-21T16:41:54.071Z,3.55
2019-04-21T16:44:25.171Z,3.98
2019-04-21T16:46:55.711Z,4.75
2019-04-21T16:49:25.494Z,5.20
2019-04-21T16:52:12.545Z,4.55
2019-04-21T16:54:44.117Z,6.70
2019-04-21T16:57:39.747Z,4.05
2019-04-21T17:00:25.490Z,6.75
2019-04-21T17:02:44.262Z,3.85
2019-04-21T17:05:14.349Z,3.33
2019-04-21T17:07:44.947Z,4.75
2019-04-21T17:10:14.827Z,7.08
2019-04-21T17:12:45.505Z,5.05
2019-04-21T17:15:33.813Z,5.08
2019-04-21T17:18:06.130Z,3.90
2019-04-21T17:20:33.378Z,4.00
2019-04-21T17:22:49.505Z,3.62
2019-04-21T17:25:21.589Z,3.65
2019-04-21T17:27:51.374Z,5.17
2019-04-21T17:30:22.246Z,5.53
2019-04-21T17:32:53.310Z,4.40
2019-04-21T17:35:22.933Z,6.62
2019-04-21T17:37:52.307Z,5.28
2019-04-21T17:40:24.169Z,6.95
2019-04-21T17:43:01.622Z,3.70
2019-04-21T17:45:24.994Z,3.72
2019-04-21T17:48:02.383Z,4.05
2019-04-21T17:50:56.337Z,4.22
2019-04-21T17:53:44.749Z,5.83
2019-04-21T17:56:31.490Z,4.92
2019-04-21T17:58:56.724Z,5.10
2019-04-21T18:01:33.184Z,6.80
2019-04-21T18:04:05.239Z,7.03
2019-04-21T18:06:58.809Z,14.53
2019-04-21T18:09:36.398Z,10.32
2019-04-21T18:12:06.778Z,8.18
2019-04-21T18:14:18.982Z,5.58
2019-04-21T18:16:49.883Z,5.95
2019-04-21T18:19:19.419Z,5.12
2019-04-21T18:22:09.156Z,5.92
2019-04-21T18:24:48.912Z,5.85
2019-04-21T18:27:13.768Z,8.88
2019-04-21T18:29:44.459Z,9.93
2019-04-21T18:32:19.729Z,6.42
2019-04-21T18:35:15.380Z,8.60
2019-04-21T18:38:23.760Z,8.33
2019-04-21T18:40:50.855Z,8.98
2019-04-21T18:46:40.063Z,9.15
2019-04-21T18:49:02.602Z,7.42
2019-04-21T18:52:00.838Z,5.08
2019-04-21T18:54:36.056Z,5.92
2019-04-21T18:57:07.238Z,6.40
2019-04-21T18:59:31.079Z,9.93
2019-04-21T19:02:02.403Z,7.15
2019-04-21T19:04:32.419Z,5.75
2019-04-21T19:07:12.952Z,5.70
2019-04-21T19:12:25.405Z,5.53
2019-04-21T19:14:47.887Z,4.35
2019-04-21T19:17:42.701Z,5.90
2019-04-21T19:19:54.351Z,7.62
2019-04-21T19:22:21.691Z,5.72
2019-04-21T19:24:54.866Z,4.50
2019-04-21T19:27:36.530Z,6.80
2019-04-21T19:30:09.376Z,8.00
2019-04-21T19:32:27.328Z,6.83
2019-04-21T19:34:43.195Z,7.05
2019-04-21T19:37:16.425Z,4.50
2019-04-21T19:39:56.682Z,6.42
2019-04-21T19:42:25.507Z,6.12
2019-04-21T19:44:59.397Z,6.08
2019-04-21T19:47:41.727Z,5.87
2019-04-21T19:50:06.218Z,5.75
2019-04-21T19:52:30.703Z,7.53
2019-04-21T19:54:50.774Z,5.25
2019-04-21T19:57:20.925Z,5.28
2019-04-21T19:59:55.311Z,5.67
2019-04-21T20:02:22.424Z,6.83
2019-04-21T20:05:00.820Z,6.55
2019-04-21T20:07:38.236Z,5.40
2019-04-21T20:10:14.423Z,5.30
2019-04-21T20:13:03.376Z,5.28
2019-04-21T20:15:20.314Z,5.67
2019-04-21T20:17:42.436Z,5.90
2019-04-21T20:19:58.271Z,6.45
2019-04-21T20:22:32.663Z,9.60
2019-04-21T20:25:07.756Z,5.25
2019-04-21T20:27:38.862Z,5.15
2019-04-21T20:30:21.721Z,5.28
2019-04-21T20:32:49.088Z,9.28
2019-04-21T20:35:34.696Z,7.53
2019-04-21T20:37:47.733Z,6.78
2019-04-21T20:40:18.144Z,5.53
2019-04-21T20:42:47.063Z,10.35
2019-04-21T20:45:38.377Z,5.58
2019-04-21T20:47:44.754Z,7.95
2019-04-21T20:50:19.776Z,5.55
2019-04-21T20:52:59.619Z,7.10
2019-04-21T20:55:22.345Z,6.95
2019-04-21T20:57:58.045Z,8.55
2019-04-21T21:00:46.192Z,9.03
2019-04-21T21:03:09.237Z,6.10
2019-04-21T21:05:35.093Z,5.70
2019-04-21T21:08:13.364Z,6.60
2019-04-21T21:10:36.963Z,5.45
2019-04-21T21:13:14.827Z,9.43
2019-04-21T21:15:43.944Z,8.08
2019-04-21T21:18:22.831Z,9.80
2019-04-21T21:20:43.652Z,6.62
2019-04-21T21:23:09.214Z,5.90
2019-04-21T21:25:51.140Z,5.75
2019-04-21T21:28:07.536Z,6.30
2019-04-21T21:30:37.628Z,6.05
2019-04-21T21:33:16.939Z,6.62
2019-04-21T21:35:43.776Z,7.87
2019-04-21T21:38:19.942Z,6.17
2019-04-21T21:40:45.584Z,6.20
2019-04-21T21:43:09.202Z,7.78
2019-04-21T21:45:44.808Z,7.75
2019-04-21T21:48:21.845Z,9.25
2019-04-21T21:50:45.647Z,4.53
2019-04-21T21:53:14.473Z,7.67
2019-04-21T21:55:40.581Z,5.30
2019-04-21T21:58:11.954Z,4.55
2019-04-21T22:00:46.750Z,4.65
2019-04-21T22:03:19.719Z,6.55
2019-04-21T22:05:50.452Z,5.83
2019-04-21T22:08:16.255Z,7.28
2019-04-21T22:10:47.233Z,5.10
2019-04-21T22:13:21.490Z,6.47
2019-04-21T22:15:55.426Z,7.17
2019-04-21T22:18:34.974Z,5.95
2019-04-21T22:21:03.629Z,7.28
2019-04-21T22:23:29.481Z,6.50
2019-04-21T22:25:53.370Z,5.80
2019-04-21T22:28:22.889Z,7.53
2019-04-21T22:30:53.671Z,6.85
2019-04-21T22:33:23.472Z,7.45
2019-04-21T22:35:59.196Z,6.12
2019-04-21T22:38:42.595Z,8.03
2019-04-21T22:41:09.937Z,6.60
2019-04-21T22:43:32.473Z,6.53
2019-04-21T22:45:59.024Z,4.87
2019-04-21T22:48:29.046Z,5.90
2019-04-21T22:51:00.595Z,5.55
2019-04-21T22:53:37.417Z,4.97
2019-04-21T22:56:11.975Z,5.67
2019-04-21T22:58:37.359Z,4.40
2019-04-21T23:01:04.235Z,5.35
2019-04-21T23:03:35.727Z,5.22
2019-04-21T23:06:09.738Z,5.12
2019-04-21T23:08:40.526Z,5.92
2019-04-21T23:11:12.185Z,6.45
2019-04-21T23:13:40.152Z,5.08
2019-04-21T23:16:09.924Z,5.03
2019-04-21T23:18:54.401Z,5.25
2019-04-21T23:21:24.728Z,5.00
2019-04-21T23:24:01.846Z,5.58
2019-04-21T23:26:34.840Z,8.60
2019-04-21T23:29:01.854Z,5.58
2019-04-21T23:31:34.148Z,4.85
2019-04-21T23:33:46.706Z,5.40
2019-04-21T23:36:21.040Z,8.70
2019-04-21T23:38:50.122Z,7.50
2019-04-21T23:41:19.462Z,7.42
2019-04-21T23:43:53.117Z,5.90
2019-04-21T23:46:26.200Z,5.30
2019-04-21T23:49:07.143Z,5.72
2019-04-21T23:51:34.441Z,6.90
2019-04-21T23:53:53.344Z,4.30
2019-04-21T23:56:30.000Z,6.25
2019-04-21T23:58:59.852Z,6.70
